Time;durP1;ratioP1;P1;durP2;ratioP2;P2;SDS_P1;SDS_P2;PMS_P1;PMS_P2;Temp;Humidity;BMP_temperature;BMP_pressure;BME280_temperature;BME280_humidity;BME280_pressure;Samples;Min_cycle;Max_cycle;Signal;HPM_P1;HPM_P2
2023/04/24 00:03:20;;;;;;;;;;;18.40;70.10;;;;;;10172240;28;92949;-64
2023/04/24 00:08:23;;;;;;;;;;;18.40;70.10;;;;;;10170407;28;94485;-65
2023/04/24 00:13:25;;;;;;;;;;;18.40;71.00;;;;;;10169887;28;93516;-64
2023/04/24 00:18:27;;;;;;;;;;;18.40;70.00;;;;;;10167439;28;95637;-64
2023/04/24 00:23:28;;;;;;;;;;;18.30;69.90;;;;;;10169875;28;94466;-64
2023/04/24 00:28:30;;;;;;;;;;;18.30;69.90;;;;;;10169750;28;93985;-65
2023/04/24 00:33:32;;;;;;;;;;;18.30;70.00;;;;;;10151865;28;93849;-65
2023/04/24 00:38:34;;;;;;;;;;;18.30;69.80;;;;;;10168954;28;93396;-65
2023/04/24 00:43:36;;;;;;;;;;;18.30;69.80;;;;;;10151211;28;94276;-65
2023/04/24 00:48:39;;;;;;;;;;;18.30;69.80;;;;;;10168120;28;93147;-65
2023/04/24 00:53:40;;;;;;;;;;;18.30;69.80;;;;;;10169197;28;93055;-65
2023/04/24 00:58:42;;;;;;;;;;;18.20;69.70;;;;;;10169139;28;94278;-65
2023/04/24 01:03:45;;;;;;;;;;;18.20;69.80;;;;;;10150169;28;93464;-65
2023/04/24 01:08:47;;;;;;;;;;;18.20;69.70;;;;;;10166426;28;95800;-65
2023/04/24 01:13:49;;;;;;;;;;;18.20;69.50;;;;;;10168069;28;93262;-65
2023/04/24 01:18:51;;;;;;;;;;;18.20;69.60;;;;;;10167746;28;94213;-65
2023/04/24 01:23:52;;;;;;;;;;;18.20;69.50;;;;;;10168145;28;93524;-65
2023/04/24 01:28:54;;;;;;;;;;;18.20;69.50;;;;;;10150172;28;92466;-65
2023/04/24 01:33:56;;;;;;;;;;;18.20;69.40;;;;;;10167654;28;94263;-65
2023/04/24 01:38:58;;;;;;;;;;;18.20;69.40;;;;;;10167111;28;94533;-65
2023/04/24 01:44:00;;;;;;;;;;;18.10;69.30;;;;;;10167708;28;92672;-65
2023/04/24 01:49:02;;;;;;;;;;;18.20;69.30;;;;;;10166377;28;93054;-65
2023/04/24 01:54:05;;;;;;;;;;;18.10;69.20;;;;;;10170044;28;93212;-65
2023/04/24 01:59:07;;;;;;;;;;;18.10;69.20;;;;;;10171317;28;96652;-65
2023/04/24 02:04:08;;;;;;;;;;;18.10;69.20;;;;;;10173791;28;93577;-65
2023/04/24 02:09:10;;;;;;;;;;;18.10;69.10;;;;;;10173752;28;94156;-64
2023/04/24 02:14:12;;;;;;;;;;;18.10;69.10;;;;;;10156642;28;93895;-65
2023/04/24 02:19:14;;;;;;;;;;;18.20;69.10;;;;;;10173601;28;93468;-65
2023/04/24 02:24:16;;;;;;;;;;;18.10;69.10;;;;;;10173019;28;94433;-65
2023/04/24 02:29:18;;;;;;;;;;;18.10;69.10;;;;;;10155777;28;93393;-65
2023/04/24 02:34:19;;;;;;;;;;;18.10;69.00;;;;;;10173830;28;92718;-65
2023/04/24 02:39:21;;;;;;;;;;;18.10;68.90;;;;;;10172486;28;93473;-65
2023/04/24 02:44:23;;;;;;;;;;;18.10;68.80;;;;;;10172950;28;94504;-65
2023/04/24 02:49:25;;;;;;;;;;;18.10;68.80;;;;;;10169318;28;96886;-65
2023/04/24 02:54:27;;;;;;;;;;;18.10;68.70;;;;;;10172715;28;93460;-64
2023/04/24 02:59:29;;;;;;;;;;;18.10;68.70;;;;;;10171493;28;92925;-64
2023/04/24 03:04:31;;;;;;;;;;;18.10;68.60;;;;;;10153593;28;92447;-64
2023/04/24 03:09:33;;;;;;;;;;;18.10;68.50;;;;;;10171739;28;93474;-64
2023/04/24 03:14:35;;;;;;;;;;;18.10;68.60;;;;;;10171835;28;94460;-64
2023/04/24 03:19:37;;;;;;;;;;;18.10;68.50;;;;;;10154371;28;94465;-64
2023/04/24 03:24:39;;;;;;;;;;;18.10;68.50;;;;;;10172830;28;93538;-64
2023/04/24 03:29:40;;;;;;;;;;;18.10;68.40;;;;;;10171399;28;93905;-64
2023/04/24 03:34:42;;;;;;;;;;;18.00;68.30;;;;;;10172039;28;94443;-64
2023/04/24 03:39:44;;;;;;;;;;;18.00;68.10;;;;;;10168592;28;96051;-64
2023/04/24 03:44:46;;;;;;;;;;;18.00;68.10;;;;;;10170943;28;94513;-64
2023/04/24 05:08:20;;;;;;;;;;;17.80;68.00;;;;;;10247984;28;93611;-72
2023/04/24 05:13:28;;;;;;;;;;;17.80;67.90;;;;;;10236092;28;93607;-74
2023/04/24 05:18:41;;;;;;;;;;;17.80;68.00;;;;;;10248831;28;94410;-73
2023/04/24 05:23:43;;;;;;;;;;;17.80;68.50;;;;;;10248538;28;92280;-74
2023/04/24 05:28:45;;;;;;;;;;;17.80;68.60;;;;;;10248717;28;93359;-74
2023/04/24 05:33:46;;;;;;;;;;;17.90;68.70;;;;;;10231572;28;93971;-73
2023/04/24 05:38:48;;;;;;;;;;;17.90;68.80;;;;;;10248761;28;95876;-73
2023/04/24 05:43:50;;;;;;;;;;;17.90;68.90;;;;;;10250816;28;93013;-74
2023/04/24 05:48:52;;;;;;;;;;;17.90;68.90;;;;;;10260704;28;93180;-74
2023/04/24 05:53:54;;;;;;;;;;;17.90;68.90;;;;;;10269362;28;93688;-74
2023/04/24 05:58:56;;;;;;;;;;;17.90;68.90;;;;;;10279987;28;93581;-74
2023/04/24 06:03:57;;;;;;;;;;;17.90;69.00;;;;;;10266638;28;94388;-71
2023/04/24 06:08:59;;;;;;;;;;;18.00;69.20;;;;;;10287403;28;92970;-74
2023/04/24 06:14:02;;;;;;;;;;;18.00;70.00;;;;;;10288638;28;93677;-74
2023/04/24 06:19:03;;;;;;;;;;;18.00;70.00;;;;;;10286211;28;93397;-74
2023/04/24 06:24:05;;;;;;;;;;;18.10;71.00;;;;;;10286509;28;94015;-75
2023/04/24 06:29:07;;;;;;;;;;;18.10;70.80;;;;;;10282572;28;95796;-73
2023/04/24 06:34:09;;;;;;;;;;;18.10;70.60;;;;;;10285343;28;93543;-70
2023/04/24 06:39:10;;;;;;;;;;;18.20;71.00;;;;;;10288631;28;96847;-70
2023/04/24 06:44:14;;;;;;;;;;;18.20;71.40;;;;;;10275890;28;94685;-71
2023/04/24 06:49:16;;;;;;;;;;;18.20;71.50;;;;;;10291919;28;93366;-70
2023/04/24 06:54:18;;;;;;;;;;;18.20;71.60;;;;;;10292925;28;93436;-71
2023/04/24 06:59:19;;;;;;;;;;;18.20;71.80;;;;;;10292857;28;93320;-71
2023/04/24 07:04:21;;;;;;;;;;;18.20;71.90;;;;;;10275183;28;91925;-71
2023/04/24 07:09:25;;;;;;;;;;;18.20;71.80;;;;;;10292270;28;93465;-71
2023/04/24 07:14:26;;;;;;;;;;;18.20;71.80;;;;;;10274978;28;94450;-71
2023/04/24 07:19:28;;;;;;;;;;;18.20;71.60;;;;;;10271950;28;95692;-71
2023/04/24 07:24:32;;;;;;;;;;;18.20;71.50;;;;;;10273956;28;93345;-68
2023/04/24 07:29:33;;;;;;;;;;;18.20;71.60;;;;;;10290953;28;93284;-70
2023/04/24 07:34:35;;;;;;;;;;;18.20;71.50;;;;;;10291227;28;93861;-70
2023/04/24 07:39:37;;;;;;;;;;;18.20;71.40;;;;;;10291134;28;93494;-71
2023/04/24 07:44:39;;;;;;;;;;;18.20;71.50;;;;;;10291171;28;92778;-72
2023/04/24 07:49:43;;;;;;;;;;;18.20;71.50;;;;;;10289353;28;93728;-71
2023/04/24 07:54:45;;;;;;;;;;;18.20;71.70;;;;;;10291331;28;92788;-70
2023/04/24 07:59:47;;;;;;;;;;;18.20;71.70;;;;;;10290755;28;94531;-69
2023/04/24 08:04:49;;;;;;;;;;;18.30;71.70;;;;;;10290076;28;93455;-69
2023/04/24 08:09:51;;;;;;;;;;;18.30;72.90;;;;;;10287275;28;96564;-68
2023/04/24 08:14:52;;;;;;;;;;;18.40;72.40;;;;;;10291150;28;94467;-70
2023/04/24 08:20:01;;;;;;;;;;;18.50;72.40;;;;;;10292814;28;96529;-67
2023/04/24 08:25:02;;;;;;;;;;;18.50;72.30;;;;;;10272381;28;93661;-69
2023/04/24 08:30:05;;;;;;;;;;;18.50;72.40;;;;;;10290525;28;93999;-69
2023/04/24 08:35:09;;;;;;;;;;;18.50;72.00;;;;;;10289375;28;93573;-70
2023/04/24 08:40:14;;;;;;;;;;;18.50;71.80;;;;;;10289878;28;93507;-69
2023/04/24 08:45:16;;;;;;;;;;;18.50;71.40;;;;;;10271680;28;92718;-70
2023/04/24 08:50:18;;;;;;;;;;;18.40;71.30;;;;;;10288510;28;93266;-70
2023/04/24 08:55:21;;;;;;;;;;;18.40;71.20;;;;;;10289214;28;94250;-69
2023/04/24 09:00:22;;;;;;;;;;;18.40;71.00;;;;;;10286714;28;97231;-69
2023/04/24 09:05:24;;;;;;;;;;;18.30;70.90;;;;;;10288209;28;94808;-69
2023/04/24 09:10:30;;;;;;;;;;;18.30;70.80;;;;;;10288691;28;93411;-69
2023/04/24 09:15:32;;;;;;;;;;;18.30;70.70;;;;;;10270269;28;94517;-69
2023/04/24 09:20:35;;;;;;;;;;;18.30;70.50;;;;;;10270942;28;94468;-69
2023/04/24 09:25:37;;;;;;;;;;;18.20;70.30;;;;;;10288538;28;93487;-69
2023/04/24 09:30:39;;;;;;;;;;;18.20;70.20;;;;;;10288563;28;93805;-70
2023/04/24 09:35:42;;;;;;;;;;;18.20;70.20;;;;;;10289516;28;94342;-70
2023/04/24 09:40:44;;;;;;;;;;;18.20;70.10;;;;;;10288111;28;94877;-69
2023/04/24 09:45:45;;;;;;;;;;;18.20;70.00;;;;;;10288447;28;93905;-69
2023/04/24 09:50:51;;;;;;;;;;;18.20;70.10;;;;;;10285513;28;97075;-69
2023/04/24 09:55:53;;;;;;;;;;;18.20;70.00;;;;;;10270222;28;93570;-71
2023/04/24 10:00:56;;;;;;;;;;;18.30;69.90;;;;;;10269090;28;93323;-70
2023/04/24 10:06:01;;;;;;;;;;;18.30;69.80;;;;;;10286802;28;94631;-70
2023/04/24 10:11:03;;;;;;;;;;;18.30;69.60;;;;;;10286796;28;93536;-71
2023/04/24 10:16:05;;;;;;;;;;;18.30;69.60;;;;;;10292412;28;94654;-70
2023/04/24 10:21:07;;;;;;;;;;;18.30;69.60;;;;;;10277736;28;93493;-69
2023/04/24 10:26:16;;;;;;;;;;;18.30;69.60;;;;;;10297313;28;94046;-70
2023/04/24 10:31:19;;;;;;;;;;;18.30;69.40;;;;;;10295847;28;93575;-69
2023/04/24 10:36:22;;;;;;;;;;;18.30;69.40;;;;;;10294561;28;94489;-70
2023/04/24 10:41:25;;;;;;;;;;;18.30;69.40;;;;;;10291653;28;95993;-71
2023/04/24 10:46:27;;;;;;;;;;;18.30;69.40;;;;;;10292133;28;93324;-71
2023/04/24 10:51:48;;;;;;;;;;;18.30;69.40;;;;;;10293435;28;94437;-70
2023/04/24 10:56:51;;;;;;;;;;;18.30;70.40;;;;;;10292689;28;93763;-70
2023/04/24 11:01:56;;;;;;;;;;;18.40;70.80;;;;;;10273576;28;114070;-71
2023/04/24 11:06:58;;;;;;;;;;;18.50;70.30;;;;;;10275183;28;93871;-69
2023/04/24 11:12:08;;;;;;;;;;;18.50;70.20;;;;;;10293683;28;94319;-72
2023/04/24 11:17:26;;;;;;;;;;;18.50;70.10;;;;;;10293406;28;93196;-72
2023/04/24 11:22:30;;;;;;;;;;;18.50;69.90;;;;;;10291581;28;93481;-72
2023/04/24 11:27:42;;;;;;;;;;;18.50;69.60;;;;;;10273205;28;94528;-72
2023/04/24 11:32:48;;;;;;;;;;;18.50;69.60;;;;;;10288452;28;96903;-73
2023/04/24 11:37:50;;;;;;;;;;;18.50;69.60;;;;;;10270026;28;93526;-74
2023/04/24 11:42:55;;;;;;;;;;;18.50;69.60;;;;;;10242499;28;95557;-74
2023/04/24 11:47:58;;;;;;;;;;;18.50;69.70;;;;;;10250880;28;93392;-75
2023/04/24 11:53:01;;;;;;;;;;;18.50;69.80;;;;;;10251042;28;93916;-74
2023/04/24 11:58:02;;;;;;;;;;;18.40;69.80;;;;;;10250711;28;93527;-74
2023/04/24 12:03:05;;;;;;;;;;;18.40;69.90;;;;;;10250649;28;92579;-75
2023/04/24 12:08:07;;;;;;;;;;;18.40;69.90;;;;;;10252121;28;93148;-75
2023/04/24 12:13:09;;;;;;;;;;;18.40;69.80;;;;;;10250776;28;93283;-76
2023/04/24 12:18:16;;;;;;;;;;;18.40;69.90;;;;;;10233843;28;93539;-75
2023/04/24 12:23:37;;;;;;;;;;;18.40;69.90;;;;;;10246935;28;96004;-74
2023/04/24 12:28:39;;;;;;;;;;;18.40;70.00;;;;;;10250731;28;94602;-75
2023/04/24 12:33:40;;;;;;;;;;;18.40;70.00;;;;;;10249218;28;93900;-74
2023/04/24 12:38:44;;;;;;;;;;;18.40;69.90;;;;;;10248979;28;94072;-74
2023/04/24 12:43:52;;;;;;;;;;;18.40;69.90;;;;;;10250167;28;94265;-72
2023/04/24 12:48:54;;;;;;;;;;;18.40;69.50;;;;;;10249608;28;93198;-75
2023/04/24 12:53:56;;;;;;;;;;;18.30;69.20;;;;;;10248562;28;93954;-74
2023/04/24 12:58:58;;;;;;;;;;;18.40;69.70;;;;;;10248934;28;93937;-75
2023/04/24 13:04:00;;;;;;;;;;;18.40;71.10;;;;;;10248963;28;93131;-77
2023/04/24 13:09:03;;;;;;;;;;;18.40;70.80;;;;;;10231589;28;94770;-78
2023/04/24 13:14:04;;;;;;;;;;;18.40;70.60;;;;;;10245845;28;95869;-75
2023/04/24 13:19:06;;;;;;;;;;;18.40;70.00;;;;;;10248032;28;93076;-76
2023/04/24 13:24:09;;;;;;;;;;;18.50;70.00;;;;;;10230242;28;93545;-76
2023/04/24 13:29:11;;;;;;;;;;;18.40;69.60;;;;;;10249481;28;93503;-75
2023/04/24 13:34:13;;;;;;;;;;;18.40;69.40;;;;;;10231936;28;93143;-76
2023/04/24 13:39:16;;;;;;;;;;;18.30;69.40;;;;;;10248371;28;93470;-76
2023/04/24 13:44:19;;;;;;;;;;;18.30;69.20;;;;;;10249507;28;94398;-75
2023/04/24 13:49:21;;;;;;;;;;;18.40;69.10;;;;;;10248610;28;93716;-75
2023/04/24 13:54:25;;;;;;;;;;;18.40;68.90;;;;;;10250329;28;93685;-75
2023/04/24 13:59:27;;;;;;;;;;;18.40;68.70;;;;;;10248520;28;93479;-75
2023/04/24 14:04:29;;;;;;;;;;;18.30;68.30;;;;;;10244617;28;96339;-75
2023/04/24 14:09:32;;;;;;;;;;;18.30;68.20;;;;;;10229275;28;93468;-71
2023/04/24 14:14:34;;;;;;;;;;;18.30;68.20;;;;;;10246638;28;93471;-75
2023/04/24 14:19:35;;;;;;;;;;;18.30;68.20;;;;;;10248220;28;94822;-76
2023/04/24 14:24:37;;;;;;;;;;;18.30;68.20;;;;;;10248808;28;94865;-73
2023/04/24 14:29:39;;;;;;;;;;;18.40;68.70;;;;;;10245877;28;93533;-70
2023/04/24 14:34:41;;;;;;;;;;;18.40;68.70;;;;;;10245237;28;93565;-71
2023/04/24 14:39:43;;;;;;;;;;;18.40;69.10;;;;;;10245886;28;93097;-70
2023/04/24 14:44:51;;;;;;;;;;;18.40;69.20;;;;;;10245010;28;93438;-72
2023/04/24 14:49:52;;;;;;;;;;;18.40;69.10;;;;;;10245462;28;94622;-74
2023/04/24 14:54:54;;;;;;;;;;;18.40;68.80;;;;;;10243288;28;96034;-71
2023/04/24 14:59:57;;;;;;;;;;;18.40;69.60;;;;;;10245858;28;93503;-69
2023/04/24 15:04:59;;;;;;;;;;;18.40;69.20;;;;;;10251751;28;93516;-72
2023/04/24 15:10:02;;;;;;;;;;;18.50;69.80;;;;;;10252624;28;93289;-72
2023/04/24 15:15:04;;;;;;;;;;;18.50;70.80;;;;;;10250561;28;94021;-70
2023/04/24 15:20:06;;;;;;;;;;;18.70;71.80;;;;;;10251305;28;93671;-70
2023/04/24 15:25:08;;;;;;;;;;;19.00;70.30;;;;;;10252566;28;94517;-71
2023/04/24 15:30:10;;;;;;;;;;;19.10;68.60;;;;;;10253978;28;93024;-73
2023/04/24 15:35:11;;;;;;;;;;;19.20;69.70;;;;;;10251054;28;93710;-71
2023/04/24 15:40:15;;;;;;;;;;;19.50;68.10;;;;;;10251933;28;94438;-70
2023/04/24 15:45:17;;;;;;;;;;;19.50;67.90;;;;;;10248786;28;95801;-70
2023/04/24 15:50:21;;;;;;;;;;;19.50;67.80;;;;;;10251264;28;92623;-69
2023/04/24 15:55:23;;;;;;;;;;;19.40;67.60;;;;;;10251943;28;94445;-69
2023/04/24 16:00:25;;;;;;;;;;;19.40;67.90;;;;;;10250125;28;93690;-70
2023/04/24 16:05:27;;;;;;;;;;;19.30;68.00;;;;;;10250743;28;93333;-69
2023/04/24 16:10:29;;;;;;;;;;;19.30;67.90;;;;;;10250330;28;94264;-71
2023/04/24 16:15:32;;;;;;;;;;;19.20;68.10;;;;;;10231703;28;93400;-70
2023/04/24 16:20:34;;;;;;;;;;;19.20;68.00;;;;;;10251793;28;93800;-70
2023/04/24 16:25:35;;;;;;;;;;;19.10;68.20;;;;;;10280689;28;93717;-70
2023/04/24 16:30:39;;;;;;;;;;;19.00;68.10;;;;;;10289987;28;93455;-70
2023/04/24 16:35:42;;;;;;;;;;;19.00;68.10;;;;;;10290075;28;95712;-70
2023/04/24 16:40:43;;;;;;;;;;;18.90;68.10;;;;;;10290484;28;93776;-71
2023/04/24 16:45:45;;;;;;;;;;;18.80;68.10;;;;;;10289760;28;94312;-70
2023/04/24 16:50:47;;;;;;;;;;;18.90;68.50;;;;;;10287789;28;94442;-69
2023/04/24 16:55:49;;;;;;;;;;;18.80;68.10;;;;;;10289524;28;94469;-69
2023/04/24 17:00:52;;;;;;;;;;;18.80;68.10;;;;;;10289145;28;93465;-69
2023/04/24 17:05:53;;;;;;;;;;;18.70;67.90;;;;;;10288798;28;94630;-70
2023/04/24 17:10:55;;;;;;;;;;;18.70;67.90;;;;;;10289851;28;93486;-70
2023/04/24 17:15:57;;;;;;;;;;;18.60;67.70;;;;;;10289060;28;93861;-70
2023/04/24 17:20:59;;;;;;;;;;;18.60;67.40;;;;;;10289134;28;94483;-69
2023/04/24 17:26:01;;;;;;;;;;;18.50;67.40;;;;;;10284671;28;95547;-68
2023/04/24 17:31:03;;;;;;;;;;;18.50;67.50;;;;;;10270840;28;93287;-68
2023/04/24 17:36:06;;;;;;;;;;;18.50;67.40;;;;;;10269566;28;94490;-70
2023/04/24 17:41:07;;;;;;;;;;;18.50;67.40;;;;;;10289070;28;94139;-70
2023/04/24 17:46:09;;;;;;;;;;;18.50;67.20;;;;;;10287821;28;93532;-70
2023/04/24 17:51:11;;;;;;;;;;;18.40;67.20;;;;;;10288055;28;94465;-70
2023/04/24 17:56:13;;;;;;;;;;;18.40;67.20;;;;;;10286574;28;94463;-70
2023/04/24 18:01:14;;;;;;;;;;;18.30;67.20;;;;;;10289019;28;93586;-71
2023/04/24 18:06:17;;;;;;;;;;;18.30;67.40;;;;;;10286868;28;92761;-71
2023/04/24 18:11:19;;;;;;;;;;;18.30;67.50;;;;;;10287449;28;93457;-71
2023/04/24 18:16:20;;;;;;;;;;;18.30;67.60;;;;;;10284177;28;95785;-71
2023/04/24 18:21:27;;;;;;;;;;;18.30;67.40;;;;;;10285761;28;93595;-71
2023/04/24 18:26:28;;;;;;;;;;;18.20;67.70;;;;;;10270611;28;94435;-71
2023/04/24 18:31:31;;;;;;;;;;;18.20;67.60;;;;;;10288123;28;94326;-70
2023/04/24 18:36:33;;;;;;;;;;;18.20;67.60;;;;;;10273370;28;93405;-72
2023/04/24 18:41:34;;;;;;;;;;;18.30;67.80;;;;;;10294451;28;92829;-68
2023/04/24 18:46:40;;;;;;;;;;;18.30;67.60;;;;;;10293767;28;94639;-70
2023/04/24 18:51:42;;;;;;;;;;;18.30;68.20;;;;;;10292676;28;93173;-70
2023/04/24 18:56:55;;;;;;;;;;;18.30;68.20;;;;;;10292385;28;94224;-70
2023/04/24 19:01:57;;;;;;;;;;;18.30;68.20;;;;;;10292330;28;94475;-70
2023/04/24 19:06:58;;;;;;;;;;;18.30;69.20;;;;;;10290893;28;96017;-70
2023/04/24 19:12:00;;;;;;;;;;;18.30;68.00;;;;;;10293856;28;94381;-70
2023/04/24 19:17:02;;;;;;;;;;;18.30;68.10;;;;;;10275070;28;93047;-69
2023/04/24 19:22:06;;;;;;;;;;;18.30;67.90;;;;;;10292325;28;94424;-70
2023/04/24 19:27:08;;;;;;;;;;;18.30;68.00;;;;;;10290335;28;94351;-69
2023/04/24 19:32:09;;;;;;;;;;;18.30;67.80;;;;;;10291744;28;93309;-70
2023/04/24 19:37:12;;;;;;;;;;;18.30;67.80;;;;;;10290789;28;93282;-70
2023/04/24 19:42:14;;;;;;;;;;;18.20;67.80;;;;;;10273537;28;91787;-71
2023/04/24 19:47:15;;;;;;;;;;;18.20;67.70;;;;;;10288489;28;93394;-70
2023/04/24 19:52:18;;;;;;;;;;;18.20;68.00;;;;;;10290392;28;93812;-69
2023/04/24 19:57:20;;;;;;;;;;;18.20;67.90;;;;;;10288877;28;95860;-70
2023/04/24 20:02:22;;;;;;;;;;;18.20;68.00;;;;;;10289938;28;93473;-70
2023/04/24 20:07:24;;;;;;;;;;;18.20;69.10;;;;;;10290294;28;93403;-70
2023/04/24 20:12:26;;;;;;;;;;;18.10;68.10;;;;;;10289532;28;93694;-70
2023/04/24 20:17:28;;;;;;;;;;;18.20;68.20;;;;;;10288732;28;93470;-70
2023/04/24 20:22:34;;;;;;;;;;;18.10;68.10;;;;;;10290077;28;94788;-70
2023/04/24 20:27:35;;;;;;;;;;;18.10;68.10;;;;;;10289502;28;93762;-70
2023/04/24 20:32:41;;;;;;;;;;;18.10;68.10;;;;;;10289579;28;92697;-68
2023/04/24 20:37:42;;;;;;;;;;;18.10;68.10;;;;;;10271450;28;94921;-69
2023/04/24 20:42:45;;;;;;;;;;;18.00;68.00;;;;;;10287102;28;94369;-69
2023/04/24 20:47:46;;;;;;;;;;;18.00;67.90;;;;;;10285156;28;96080;-69
2023/04/24 20:52:51;;;;;;;;;;;18.00;68.00;;;;;;10288300;28;93515;-68
2023/04/24 20:57:53;;;;;;;;;;;17.90;68.00;;;;;;10288957;28;93709;-68
2023/04/24 21:02:54;;;;;;;;;;;17.90;67.70;;;;;;10288099;28;93845;-68
2023/04/24 21:07:56;;;;;;;;;;;17.90;67.60;;;;;;10288911;28;93467;-68
2023/04/24 21:12:58;;;;;;;;;;;17.80;67.50;;;;;;10287713;28;93563;-68
2023/04/24 21:18:00;;;;;;;;;;;17.90;67.50;;;;;;10288866;28;92723;-68
2023/04/24 21:23:04;;;;;;;;;;;17.80;67.40;;;;;;10271847;28;93381;-68
2023/04/24 21:28:06;;;;;;;;;;;17.80;67.20;;;;;;10287403;28;93343;-68
2023/04/24 21:33:08;;;;;;;;;;;17.80;67.20;;;;;;10271086;28;94074;-68
2023/04/24 21:38:10;;;;;;;;;;;17.80;67.20;;;;;;10285765;28;96794;-68
2023/04/24 21:43:11;;;;;;;;;;;17.70;67.00;;;;;;10288271;28;94898;-68
2023/04/24 21:48:13;;;;;;;;;;;17.70;66.80;;;;;;10288291;28;94261;-68
2023/04/24 21:53:15;;;;;;;;;;;17.70;66.70;;;;;;10287087;28;93609;-67
2023/04/24 21:58:17;;;;;;;;;;;17.70;66.80;;;;;;10289305;28;93950;-69
2023/04/24 22:03:19;;;;;;;;;;;17.70;66.60;;;;;;10289318;28;94097;-68
2023/04/24 22:08:21;;;;;;;;;;;17.70;66.40;;;;;;10271924;28;94333;-68
2023/04/24 22:13:22;;;;;;;;;;;17.70;66.30;;;;;;10296480;28;93520;-68
2023/04/24 22:18:24;;;;;;;;;;;17.70;66.20;;;;;;10293268;28;93951;-69
2023/04/24 22:23:34;;;;;;;;;;;17.70;66.00;;;;;;10277727;28;94877;-69
2023/04/24 22:28:35;;;;;;;;;;;17.70;65.90;;;;;;10291876;28;96392;-68
2023/04/24 22:33:37;;;;;;;;;;;17.70;65.80;;;;;;10274313;28;93568;-68
2023/04/24 22:38:39;;;;;;;;;;;17.70;65.90;;;;;;10293007;28;94513;-68
2023/04/24 22:43:41;;;;;;;;;;;17.70;65.60;;;;;;10293834;28;94491;-69
2023/04/24 22:48:43;;;;;;;;;;;17.70;65.60;;;;;;10292427;28;93256;-68
2023/04/24 22:53:45;;;;;;;;;;;17.60;65.60;;;;;;10293620;28;93895;-68
2023/04/24 22:58:47;;;;;;;;;;;17.60;65.70;;;;;;10291275;28;94496;-69
2023/04/24 23:03:50;;;;;;;;;;;17.60;65.70;;;;;;10294153;28;93470;-69
2023/04/24 23:08:52;;;;;;;;;;;17.60;65.70;;;;;;10293245;28;96206;-68
2023/04/24 23:13:53;;;;;;;;;;;17.50;65.40;;;;;;10292565;28;93485;-68
2023/04/24 23:18:55;;;;;;;;;;;17.50;65.50;;;;;;10289872;28;96574;-68
2023/04/24 23:23:57;;;;;;;;;;;17.50;65.20;;;;;;10288825;28;94003;-69
2023/04/24 23:28:59;;;;;;;;;;;17.50;65.40;;;;;;10291411;28;93548;-68
2023/04/24 23:34:01;;;;;;;;;;;17.50;65.40;;;;;;10274705;28;93010;-68
2023/04/24 23:39:04;;;;;;;;;;;17.50;65.30;;;;;;10291669;28;92649;-68
2023/04/24 23:44:05;;;;;;;;;;;17.50;65.10;;;;;;10291337;28;93483;-68
2023/04/24 23:49:07;;;;;;;;;;;17.50;65.20;;;;;;10290077;28;93924;-68
2023/04/24 23:54:10;;;;;;;;;;;17.50;65.20;;;;;;10289230;28;92786;-68
2023/04/24 23:59:11;;;;;;;;;;;17.40;65.00;;;;;;10291184;28;94554;-68
